createdAt,value
2022-12-11T00:01:23.836Z,49.65
2022-12-11T00:03:55.960Z,68.32
2022-12-11T00:06:26.019Z,64.13
2022-12-11T00:08:56.040Z,62.63
2022-12-11T00:11:25.926Z,65.15
2022-12-11T00:13:55.230Z,53.25
2022-12-11T00:16:27.136Z,58.40
2022-12-11T00:18:56.983Z,50.20
2022-12-11T00:21:26.310Z,55.75
2022-12-11T00:23:55.759Z,57.22
2022-12-11T00:26:25.311Z,76.97
2022-12-11T00:28:56.270Z,63.63
2022-12-11T00:31:26.112Z,45.63
2022-12-11T00:33:55.553Z,51.08
2022-12-11T00:36:26.127Z,59.15
2022-12-11T00:38:55.714Z,58.33
2022-12-11T00:41:25.171Z,56.58
2022-12-11T00:43:54.465Z,56.03
2022-12-11T00:46:23.835Z,53.47
2022-12-11T00:48:53.734Z,51.67
2022-12-11T00:51:23.839Z,64.05
2022-12-11T00:53:53.703Z,56.60
2022-12-11T00:56:25.355Z,67.32
2022-12-11T00:58:54.946Z,57.10
2022-12-11T01:01:26.861Z,58.45
2022-12-11T01:03:56.692Z,72.38
2022-12-11T01:06:26.747Z,60.00
2022-12-11T01:09:16.068Z,56.63
2022-12-11T01:11:43.186Z,51.60
2022-12-11T01:14:13.606Z,55.50
2022-12-11T01:16:43.052Z,52.53
2022-12-11T01:19:12.350Z,48.22
2022-12-11T01:21:41.597Z,52.53
2022-12-11T01:24:10.853Z,53.00
2022-12-11T01:26:40.344Z,60.08
2022-12-11T01:29:09.601Z,57.65
2022-12-11T01:31:38.886Z,51.25
2022-12-11T01:34:08.216Z,61.42
2022-12-11T01:36:37.440Z,48.40
2022-12-11T01:39:06.739Z,50.42
2022-12-11T01:41:35.980Z,53.25
2022-12-11T01:44:31.501Z,48.25
2022-12-11T01:47:00.998Z,59.78
2022-12-11T01:49:31.783Z,54.15
2022-12-11T01:52:04.035Z,56.70
2022-12-11T01:54:33.447Z,53.75
2022-12-11T01:57:05.622Z,49.88
2022-12-11T01:59:39.307Z,55.85
2022-12-11T02:02:26.990Z,56.22
2022-12-11T02:04:56.342Z,62.15
2022-12-11T02:07:26.130Z,57.03
2022-12-11T02:09:55.339Z,57.63
2022-12-11T02:12:32.947Z,63.92
2022-12-11T02:15:22.925Z,66.63
2022-12-11T02:18:10.601Z,59.20
2022-12-11T02:20:39.818Z,55.38
2022-12-11T02:23:21.856Z,72.22
2022-12-11T02:26:09.884Z,65.95
2022-12-11T02:28:42.399Z,56.45
2022-12-11T02:31:31.958Z,54.40
2022-12-11T02:34:01.198Z,68.90
2022-12-11T02:36:32.579Z,56.30
2022-12-11T02:39:03.797Z,56.55
2022-12-11T02:41:34.032Z,69.75
2022-12-11T02:44:05.235Z,53.22
2022-12-11T02:46:36.855Z,57.72
2022-12-11T02:49:08.232Z,57.92
2022-12-11T02:51:40.462Z,55.58
2022-12-11T02:54:11.932Z,58.83
2022-12-11T02:56:47.696Z,58.28
2022-12-11T02:59:18.828Z,46.78
2022-12-11T03:01:48.989Z,59.00
2022-12-11T03:04:24.866Z,56.72
2022-12-11T03:06:56.618Z,55.13
2022-12-11T03:09:25.913Z,60.85
2022-12-11T03:11:55.265Z,51.13
2022-12-11T03:14:24.576Z,49.72
2022-12-11T03:17:07.540Z,48.85
2022-12-11T03:19:44.336Z,51.25
2022-12-11T03:22:23.834Z,46.17
2022-12-11T03:24:55.308Z,55.65
2022-12-11T03:27:37.263Z,57.70
2022-12-11T03:30:06.554Z,61.13
2022-12-11T03:32:52.268Z,49.03
2022-12-11T03:35:29.269Z,50.58
2022-12-11T03:37:59.412Z,38.53
2022-12-11T03:40:29.634Z,50.47
2022-12-11T03:42:59.861Z,48.17
2022-12-11T03:45:30.879Z,52.22
2022-12-11T03:48:02.048Z,59.05
2022-12-11T03:50:33.701Z,52.13
2022-12-11T03:53:03.335Z,54.20
2022-12-11T03:55:33.388Z,53.70
2022-12-11T03:58:02.719Z,48.55
2022-12-11T04:00:32.116Z,55.75
2022-12-11T04:03:19.667Z,57.15
2022-12-11T04:05:50.059Z,40.78
2022-12-11T04:08:20.754Z,56.10
2022-12-11T04:11:12.782Z,55.22
2022-12-11T04:13:42.790Z,64.27
2022-12-11T04:16:09.631Z,50.75
2022-12-11T04:18:51.442Z,45.78
2022-12-11T04:21:39.126Z,50.85
2022-12-11T04:24:17.852Z,51.15
2022-12-11T04:26:48.971Z,57.75
2022-12-11T04:29:18.328Z,41.67
2022-12-11T04:31:48.285Z,51.22
2022-12-11T04:34:17.571Z,44.97
2022-12-11T04:36:46.965Z,53.58
2022-12-11T04:39:16.284Z,52.10
2022-12-11T04:41:45.538Z,43.42
2022-12-11T04:44:14.792Z,43.17
2022-12-11T04:46:44.702Z,40.40
2022-12-11T04:49:14.018Z,48.40
2022-12-11T04:51:43.756Z,45.15
2022-12-11T04:54:13.012Z,45.83
2022-12-11T04:56:42.302Z,44.05
2022-12-11T04:59:11.513Z,37.83
2022-12-11T05:01:40.796Z,43.85
2022-12-11T05:04:10.052Z,36.88
2022-12-11T05:06:39.301Z,39.20
2022-12-11T05:09:08.734Z,38.55
2022-12-11T05:11:38.980Z,43.47
2022-12-11T05:14:08.221Z,42.58
2022-12-11T05:16:37.427Z,42.97
2022-12-11T05:19:06.649Z,46.03
2022-12-11T05:21:35.872Z,40.65
2022-12-11T05:24:05.306Z,44.45
2022-12-11T05:26:34.538Z,44.72
2022-12-11T05:29:03.769Z,32.45
2022-12-11T05:31:33.111Z,38.50
2022-12-11T05:34:02.356Z,41.28
2022-12-11T05:36:32.865Z,45.53
2022-12-11T05:39:03.074Z,46.55
2022-12-11T05:41:33.056Z,38.35
2022-12-11T05:44:02.724Z,34.53
2022-12-11T05:46:32.948Z,40.55
2022-12-11T05:49:03.888Z,44.40
2022-12-11T05:51:34.302Z,36.95
2022-12-11T05:54:03.694Z,35.72
2022-12-11T05:56:34.057Z,33.67
2022-12-11T05:59:04.112Z,41.53
2022-12-11T06:01:35.184Z,41.78
2022-12-11T06:04:04.554Z,36.03
2022-12-11T06:06:34.451Z,40.92
2022-12-11T06:09:03.877Z,32.88
2022-12-11T06:11:33.787Z,35.60
2022-12-11T06:14:03.973Z,30.42
2022-12-11T06:16:33.317Z,33.75
2022-12-11T06:19:02.593Z,36.65
2022-12-11T06:21:33.151Z,29.08
2022-12-11T06:24:03.596Z,36.42
2022-12-11T06:26:33.395Z,35.53
2022-12-11T06:29:05.279Z,32.45
2022-12-11T06:31:38.215Z,30.40
2022-12-11T06:34:07.496Z,32.88
2022-12-11T06:36:36.862Z,27.00
2022-12-11T06:39:06.254Z,30.05
2022-12-11T06:41:35.521Z,25.65
2022-12-11T06:44:04.770Z,23.15
2022-12-11T06:46:33.971Z,22.85
2022-12-11T06:49:05.968Z,29.45
2022-12-11T06:51:35.348Z,26.77
2022-12-11T06:54:04.638Z,24.65
2022-12-11T06:56:33.898Z,25.02
2022-12-11T06:59:07.368Z,23.35
2022-12-11T07:01:36.995Z,25.75
2022-12-11T07:04:06.178Z,25.95
2022-12-11T07:06:35.468Z,25.67
2022-12-11T07:09:06.760Z,22.13
2022-12-11T07:11:35.998Z,20.95
2022-12-11T07:14:05.210Z,21.83
2022-12-11T07:16:34.589Z,22.23
2022-12-11T07:19:03.887Z,24.55
2022-12-11T07:21:34.404Z,24.10
2022-12-11T07:24:03.759Z,22.73
2022-12-11T07:26:32.985Z,26.40
2022-12-11T07:29:02.811Z,24.50
2022-12-11T07:31:32.772Z,22.73
2022-12-11T07:34:06.724Z,25.10
2022-12-11T07:36:36.664Z,29.88
2022-12-11T07:39:05.907Z,26.48
2022-12-11T07:41:35.220Z,25.90
2022-12-11T07:44:04.523Z,21.60
2022-12-11T07:46:34.571Z,20.45
2022-12-11T07:49:04.470Z,22.83
2022-12-11T07:51:35.518Z,20.77
2022-12-11T07:54:08.725Z,20.67
2022-12-11T07:56:43.894Z,22.35
2022-12-11T07:59:13.776Z,25.65
2022-12-11T08:01:44.272Z,22.40
2022-12-11T08:04:15.756Z,27.98
2022-12-11T08:06:45.472Z,24.92
2022-12-11T08:09:21.150Z,28.08
2022-12-11T08:11:51.479Z,23.35
2022-12-11T08:14:21.114Z,24.90
2022-12-11T08:16:51.485Z,25.90
2022-12-11T08:19:21.995Z,19.95
2022-12-11T08:21:52.896Z,20.80
2022-12-11T08:24:23.740Z,25.35
2022-12-11T08:26:53.276Z,21.88
2022-12-11T08:29:22.527Z,24.65
2022-12-11T08:31:51.745Z,25.60
2022-12-11T08:34:20.989Z,24.55
2022-12-11T08:36:50.213Z,26.25
2022-12-11T08:39:19.736Z,29.13
2022-12-11T08:41:48.987Z,22.50
2022-12-11T08:44:18.213Z,24.15
2022-12-11T08:46:48.188Z,31.80
2022-12-11T08:49:17.615Z,28.27
2022-12-11T08:51:46.849Z,26.30
2022-12-11T08:54:16.103Z,22.58
2022-12-11T08:56:45.308Z,25.40
2022-12-11T08:59:14.566Z,24.92
2022-12-11T09:01:45.069Z,20.52
2022-12-11T10:05:33.921Z,25.23
2022-12-11T10:08:05.981Z,23.42
2022-12-11T10:10:38.162Z,24.08
2022-12-11T10:13:16.554Z,23.77
2022-12-11T10:15:59.903Z,21.20
2022-12-11T10:18:31.021Z,23.10
2022-12-11T10:21:02.988Z,27.38
2022-12-11T10:23:35.786Z,25.08
2022-12-11T10:26:14.031Z,25.67
2022-12-11T10:28:43.269Z,21.40
2022-12-11T10:31:20.730Z,28.98
2022-12-11T10:34:03.580Z,22.33
2022-12-11T10:36:34.088Z,26.48
2022-12-11T10:39:03.831Z,21.83
2022-12-11T10:41:40.994Z,25.30
2022-12-11T10:44:29.959Z,18.58
2022-12-11T10:47:05.017Z,21.05
2022-12-11T10:49:36.016Z,21.15
2022-12-11T10:52:12.240Z,25.75
2022-12-11T10:54:43.023Z,20.13
2022-12-11T10:57:14.293Z,21.15
2022-12-11T10:59:46.831Z,27.60
2022-12-11T11:02:25.800Z,18.52
2022-12-11T11:04:56.013Z,20.15
2022-12-11T11:07:29.815Z,22.58
2022-12-11T11:10:14.054Z,19.17
2022-12-11T11:12:53.027Z,21.83
2022-12-11T11:15:25.227Z,19.02
2022-12-11T11:17:56.291Z,17.60
2022-12-11T11:20:27.216Z,18.33
2022-12-11T11:22:57.792Z,22.27
2022-12-11T11:25:28.703Z,24.38
2022-12-11T11:28:02.834Z,22.80
2022-12-11T11:30:33.975Z,21.77
2022-12-11T11:33:06.656Z,19.92
2022-12-11T11:35:35.835Z,20.33
2022-12-11T11:38:05.054Z,25.27
2022-12-11T11:40:38.311Z,21.08
2022-12-11T11:43:11.087Z,19.38
2022-12-11T11:45:54.512Z,19.63
2022-12-11T11:48:39.221Z,19.83
2022-12-11T11:51:17.455Z,21.58
2022-12-11T11:53:50.753Z,19.42
2022-12-11T11:56:24.731Z,17.50
2022-12-11T11:58:59.453Z,15.65
2022-12-11T12:01:28.878Z,17.38
2022-12-11T12:03:58.304Z,16.52
2022-12-11T12:06:30.594Z,18.70
2022-12-11T12:08:59.880Z,20.40
2022-12-11T12:11:43.495Z,16.95
2022-12-11T12:17:36.283Z,15.88
2022-12-11T12:20:24.569Z,19.20
2022-12-11T12:22:56.594Z,18.42
2022-12-11T12:25:28.875Z,19.77
2022-12-11T12:28:13.944Z,18.77
2022-12-11T12:30:49.577Z,22.08
2022-12-11T12:33:34.329Z,16.33
2022-12-11T12:36:09.665Z,15.82
2022-12-11T12:38:41.880Z,20.67
2022-12-11T12:41:20.178Z,18.20
2022-12-11T12:44:02.978Z,16.02
2022-12-11T12:49:01.931Z,16.50
2022-12-11T12:51:31.575Z,22.70
2022-12-11T12:54:02.216Z,20.30
2022-12-11T12:56:33.496Z,21.38
2022-12-11T12:59:02.731Z,20.58
2022-12-11T13:01:32.985Z,20.63
2022-12-11T13:04:08.671Z,18.73
2022-12-11T13:06:42.555Z,19.15
2022-12-11T13:09:14.979Z,24.42
2022-12-11T13:14:16.534Z,20.55
2022-12-11T13:19:21.072Z,21.58
2022-12-11T13:22:09.067Z,23.02
2022-12-11T13:24:48.479Z,23.40
2022-12-11T13:27:32.768Z,28.13
2022-12-11T13:30:24.465Z,20.50
2022-12-11T13:33:08.953Z,19.85
2022-12-11T13:35:38.351Z,20.25
2022-12-11T13:38:10.804Z,19.40
2022-12-11T13:43:12.474Z,18.17
2022-12-11T13:48:22.509Z,19.00
2022-12-11T13:50:52.697Z,20.92
2022-12-11T13:53:22.378Z,22.90
2022-12-11T13:56:02.089Z,24.17
2022-12-11T13:58:31.684Z,21.02
2022-12-11T14:01:11.163Z,25.33
2022-12-11T14:03:44.636Z,23.33
2022-12-11T14:06:18.573Z,18.52
2022-12-11T14:08:52.315Z,24.52
2022-12-11T14:11:27.890Z,18.38
2022-12-11T14:13:58.720Z,16.73
2022-12-11T14:16:29.058Z,21.45
2022-12-11T14:19:01.142Z,21.42
2022-12-11T14:21:30.419Z,20.73
2022-12-11T14:24:01.135Z,24.65
2022-12-11T14:26:40.450Z,23.98
2022-12-11T14:29:09.807Z,18.98
2022-12-11T14:31:40.285Z,18.33
2022-12-11T14:34:14.402Z,21.63
2022-12-11T14:36:44.685Z,18.13
2022-12-11T14:39:16.538Z,20.55
2022-12-11T14:41:50.994Z,19.90
2022-12-11T14:44:21.933Z,15.68
2022-12-11T14:46:51.287Z,22.10
2022-12-11T14:49:39.188Z,19.80
2022-12-11T14:52:09.106Z,17.65
2022-12-11T14:54:40.854Z,23.13
2022-12-11T14:57:10.965Z,18.55
2022-12-11T14:59:44.101Z,20.70
2022-12-11T15:02:29.676Z,19.05
2022-12-11T15:05:05.061Z,21.15
2022-12-11T15:07:34.626Z,16.42
2022-12-11T15:10:07.175Z,24.45
2022-12-11T15:12:36.802Z,20.13
2022-12-11T15:15:07.815Z,18.50
2022-12-11T15:17:37.772Z,21.45
2022-12-11T15:20:11.874Z,22.92
2022-12-11T15:22:45.072Z,16.38
2022-12-11T15:25:40.657Z,20.83
2022-12-11T15:28:28.259Z,19.17
2022-12-11T15:30:58.642Z,16.67
2022-12-11T15:33:33.878Z,18.35
2022-12-11T15:36:08.106Z,21.67
2022-12-11T15:38:37.677Z,20.75
2022-12-11T15:41:07.354Z,20.95
2022-12-11T15:43:38.666Z,16.38
2022-12-11T15:46:08.195Z,25.27
2022-12-11T15:48:37.493Z,17.48
2022-12-11T15:51:06.904Z,17.48
2022-12-11T15:53:36.116Z,17.75
2022-12-11T15:56:05.389Z,15.70
2022-12-11T15:58:35.632Z,16.95
2022-12-11T16:01:04.917Z,16.33
2022-12-11T16:03:34.780Z,16.77
2022-12-11T16:06:04.024Z,16.25
2022-12-11T16:08:33.339Z,19.83
2022-12-11T16:11:02.857Z,12.45
2022-12-11T16:13:32.122Z,17.85
2022-12-11T16:16:01.423Z,17.33
2022-12-11T16:18:30.654Z,17.95
2022-12-11T16:20:59.949Z,17.90
2022-12-11T16:23:29.724Z,17.83
2022-12-11T16:25:59.019Z,18.55
2022-12-11T16:28:28.240Z,15.63
2022-12-11T16:30:58.539Z,18.58
2022-12-11T16:33:27.836Z,17.48
2022-12-11T16:35:57.071Z,17.00
2022-12-11T16:38:26.436Z,18.08
2022-12-11T16:41:02.615Z,18.60
2022-12-11T16:43:31.912Z,13.85
2022-12-11T16:46:01.283Z,17.58
2022-12-11T16:48:30.568Z,18.48
2022-12-11T16:50:59.842Z,19.52
2022-12-11T16:53:29.328Z,21.50
2022-12-11T16:55:58.564Z,19.17
2022-12-11T16:58:27.827Z,18.08
2022-12-11T17:01:02.191Z,17.85
2022-12-11T17:03:32.818Z,18.33
2022-12-11T17:06:02.151Z,18.15
2022-12-11T17:08:31.419Z,18.27
2022-12-11T17:11:00.763Z,22.33
2022-12-11T17:13:35.727Z,19.40
2022-12-11T17:16:09.362Z,19.15
2022-12-11T17:18:38.882Z,22.20
2022-12-11T17:21:09.623Z,20.20
2022-12-11T17:23:38.915Z,21.13
2022-12-11T17:26:08.837Z,19.27
2022-12-11T17:28:38.892Z,20.60
2022-12-11T17:31:12.655Z,23.48
2022-12-11T17:33:42.287Z,16.25
2022-12-11T17:36:11.750Z,22.52
2022-12-11T17:38:40.981Z,21.00
2022-12-11T17:41:14.224Z,20.67
2022-12-11T17:43:43.884Z,25.73
2022-12-11T17:46:13.802Z,20.77
2022-12-11T17:48:43.122Z,20.75
2022-12-11T17:51:14.236Z,19.50
2022-12-11T17:53:43.428Z,21.40
2022-12-11T17:56:12.598Z,21.58
2022-12-11T17:58:41.924Z,19.38
2022-12-11T18:01:13.006Z,20.63
2022-12-11T18:03:42.437Z,18.83
2022-12-11T18:06:13.762Z,18.63
2022-12-11T18:08:44.417Z,27.60
2022-12-11T18:11:16.048Z,30.17
2022-12-11T18:13:46.235Z,29.92
2022-12-11T18:16:20.003Z,24.02
2022-12-11T18:18:50.436Z,20.80
2022-12-11T18:21:21.526Z,18.85
2022-12-11T18:23:52.505Z,19.00
2022-12-11T18:26:22.198Z,17.70
2022-12-11T18:28:52.986Z,24.60
2022-12-11T18:31:22.981Z,24.08
2022-12-11T18:33:52.788Z,22.92
2022-12-11T18:36:22.732Z,22.08
2022-12-11T18:38:52.010Z,18.50
2022-12-11T18:41:21.772Z,27.80
2022-12-11T18:43:51.044Z,20.90
2022-12-11T18:46:21.725Z,21.25
2022-12-11T18:48:51.139Z,21.48
2022-12-11T18:51:22.654Z,19.20
2022-12-11T18:53:52.161Z,23.20
2022-12-11T18:56:21.971Z,19.20
2022-12-11T18:58:52.946Z,19.08
2022-12-11T19:01:23.722Z,24.42
2022-12-11T19:03:56.334Z,20.77
2022-12-11T19:06:30.271Z,22.17
2022-12-11T19:08:59.931Z,23.63
2022-12-11T19:11:30.549Z,22.13
2022-12-11T19:14:00.280Z,20.35
2022-12-11T19:16:33.625Z,26.25
2022-12-11T19:19:04.264Z,27.45
2022-12-11T19:21:34.309Z,24.10
2022-12-11T19:24:03.645Z,21.27
2022-12-11T19:26:32.863Z,25.33
2022-12-11T19:29:02.441Z,23.83
2022-12-11T19:31:32.678Z,23.33
2022-12-11T19:34:02.916Z,22.48
2022-12-11T19:36:34.881Z,21.00
2022-12-11T19:39:08.320Z,22.88
2022-12-11T19:41:40.680Z,30.33
2022-12-11T19:44:10.233Z,23.60
2022-12-11T19:46:39.632Z,27.40
2022-12-11T19:49:09.054Z,28.80
2022-12-11T19:51:40.922Z,21.95
2022-12-11T19:54:11.562Z,28.52
2022-12-11T19:56:40.864Z,23.13
2022-12-11T19:59:11.303Z,22.90
2022-12-11T20:01:40.647Z,22.20
2022-12-11T20:04:12.805Z,30.38
2022-12-11T20:06:43.982Z,25.55
2022-12-11T20:09:14.210Z,19.25
2022-12-11T20:11:44.489Z,22.95
2022-12-11T20:14:21.722Z,22.23
2022-12-11T20:19:40.683Z,20.17
2022-12-11T20:22:10.004Z,17.38
2022-12-11T20:24:40.402Z,17.85
2022-12-11T20:27:12.417Z,18.83
2022-12-11T20:29:41.971Z,17.83
2022-12-11T20:32:11.379Z,21.30
2022-12-11T20:34:41.320Z,20.23
2022-12-11T20:37:10.656Z,22.92
2022-12-11T20:39:39.940Z,24.08
2022-12-11T20:42:11.166Z,22.52
2022-12-11T20:44:44.171Z,23.45
2022-12-11T20:47:19.731Z,19.80
2022-12-11T20:49:49.646Z,22.85
2022-12-11T20:52:19.239Z,24.17
2022-12-11T20:54:48.529Z,21.70
2022-12-11T20:57:18.528Z,21.30
2022-12-11T20:59:49.256Z,30.75
2022-12-11T21:02:18.777Z,25.80
2022-12-11T21:04:48.094Z,16.60
2022-12-11T21:07:17.366Z,23.00
2022-12-11T21:09:46.684Z,24.88
2022-12-11T21:12:15.927Z,22.10
2022-12-11T21:14:45.130Z,22.92
2022-12-11T21:17:14.448Z,22.40
2022-12-11T21:19:43.687Z,22.23
2022-12-11T21:22:12.942Z,24.55
2022-12-11T21:24:42.190Z,22.77
2022-12-11T21:27:11.488Z,20.25
2022-12-11T21:29:40.721Z,23.50
2022-12-11T21:32:09.986Z,20.23
2022-12-11T21:34:39.185Z,20.70
2022-12-11T21:37:08.388Z,23.52
2022-12-11T21:39:39.557Z,21.60
2022-12-11T21:42:08.904Z,25.58
2022-12-11T21:45:31.295Z,21.58
2022-12-11T21:47:31.300Z,26.42
2022-12-11T21:50:00.513Z,23.50
2022-12-11T21:52:30.035Z,21.73
2022-12-11T21:54:59.314Z,17.75
2022-12-11T21:57:28.542Z,17.60
2022-12-11T21:59:58.128Z,20.63
2022-12-11T22:02:27.425Z,17.50
2022-12-11T22:04:56.682Z,23.75
2022-12-11T22:07:26.045Z,21.23
2022-12-11T22:09:55.269Z,21.95
2022-12-11T22:12:26.009Z,19.92
2022-12-11T22:14:55.458Z,18.85
2022-12-11T22:17:24.785Z,21.30
2022-12-11T22:19:54.515Z,23.50
2022-12-11T22:22:23.775Z,22.35
2022-12-11T22:24:53.156Z,19.80
2022-12-11T22:27:24.070Z,18.63
2022-12-11T22:29:53.637Z,14.98
2022-12-11T22:32:22.873Z,20.52
2022-12-11T22:34:52.101Z,22.23
2022-12-11T22:37:21.348Z,22.33
2022-12-11T22:39:50.583Z,20.08
2022-12-11T22:42:19.873Z,21.15
2022-12-11T22:44:49.497Z,19.90
2022-12-11T22:47:18.741Z,19.15
2022-12-11T22:49:47.937Z,21.13
2022-12-11T22:52:17.202Z,17.75
2022-12-11T22:54:46.455Z,20.67
2022-12-11T22:57:16.497Z,23.25
2022-12-11T22:59:46.112Z,21.95
2022-12-11T23:02:15.465Z,17.60
2022-12-11T23:04:44.906Z,22.33
2022-12-11T23:07:14.169Z,20.50
2022-12-11T23:09:43.501Z,21.33
2022-12-11T23:12:12.768Z,17.92
2022-12-11T23:14:42.054Z,14.32
2022-12-11T23:17:11.482Z,19.48
2022-12-11T23:19:40.692Z,19.25
2022-12-11T23:22:09.897Z,17.25
2022-12-11T23:24:39.148Z,16.65
2022-12-11T23:27:08.434Z,18.50
2022-12-11T23:29:37.686Z,15.18
2022-12-11T23:32:07.022Z,17.15
2022-12-11T23:34:36.289Z,16.98
2022-12-11T23:37:05.522Z,16.90
2022-12-11T23:39:35.031Z,16.58
2022-12-11T23:42:04.308Z,17.30
2022-12-11T23:44:33.594Z,25.67
2022-12-11T23:47:02.917Z,18.17
2022-12-11T23:49:32.231Z,19.40
2022-12-11T23:52:01.468Z,19.40
2022-12-11T23:54:30.765Z,17.05
2022-12-11T23:57:00.020Z,19.30
2022-12-11T23:59:29.319Z,20.38
